sensor_id;sensor_type;location;lat;lon;timestamp;temperature;humidity
69204;DHT22;56317;27.658;85.326;2022-11-23T00:03:48;7.40;99.90
69204;DHT22;56317;27.658;85.326;2022-11-23T00:06:16;7.50;99.90
69204;DHT22;56317;27.658;85.326;2022-11-23T00:08:43;7.50;99.90
69204;DHT22;56317;27.658;85.326;2022-11-23T00:11:11;7.40;99.90
69204;DHT22;56317;27.658;85.326;2022-11-23T00:13:39;7.40;99.90
69204;DHT22;56317;27.658;85.326;2022-11-23T00:16:18;7.40;99.90
69204;DHT22;56317;27.658;85.326;2022-11-23T00:18:45;7.40;99.90
69204;DHT22;56317;27.658;85.326;2022-11-23T00:21:15;7.40;99.90
69204;DHT22;56317;27.658;85.326;2022-11-23T00:23:42;7.40;99.90
69204;DHT22;56317;27.658;85.326;2022-11-23T00:26:10;7.40;99.90
69204;DHT22;56317;27.658;85.326;2022-11-23T00:28:38;7.40;99.90
69204;DHT22;56317;27.658;85.326;2022-11-23T00:31:08;7.30;99.90
69204;DHT22;56317;27.658;85.326;2022-11-23T00:33:36;7.30;99.90
69204;DHT22;56317;27.658;85.326;2022-11-23T00:36:09;7.30;99.90
69204;DHT22;56317;27.658;85.326;2022-11-23T00:38:37;7.30;99.90
69204;DHT22;56317;27.658;85.326;2022-11-23T00:41:07;7.30;99.90
69204;DHT22;56317;27.658;85.326;2022-11-23T00:43:38;7.40;99.90
69204;DHT22;56317;27.658;85.326;2022-11-23T00:46:13;7.40;99.90
69204;DHT22;56317;27.658;85.326;2022-11-23T00:48:43;7.40;99.90
69204;DHT22;56317;27.658;85.326;2022-11-23T00:51:13;7.40;99.90
69204;DHT22;56317;27.658;85.326;2022-11-23T00:53:41;7.40;99.90
69204;DHT22;56317;27.658;85.326;2022-11-23T00:56:08;7.40;99.90
69204;DHT22;56317;27.658;85.326;2022-11-23T00:58:36;7.50;99.90
69204;DHT22;56317;27.658;85.326;2022-11-23T01:01:11;7.50;99.90
69204;DHT22;56317;27.658;85.326;2022-11-23T01:03:44;7.50;99.90
69204;DHT22;56317;27.658;85.326;2022-11-23T01:06:27;7.60;99.90
69204;DHT22;56317;27.658;85.326;2022-11-23T01:08:56;7.60;99.90
69204;DHT22;56317;27.658;85.326;2022-11-23T01:11:27;7.60;99.90
69204;DHT22;56317;27.658;85.326;2022-11-23T01:13:54;7.70;99.90
69204;DHT22;56317;27.658;85.326;2022-11-23T01:16:24;7.80;99.90
69204;DHT22;56317;27.658;85.326;2022-11-23T01:19:19;7.90;99.90
69204;DHT22;56317;27.658;85.326;2022-11-23T01:21:46;8.10;99.90
69204;DHT22;56317;27.658;85.326;2022-11-23T01:24:17;8.20;99.90
69204;DHT22;56317;27.658;85.326;2022-11-23T01:26:45;8.30;99.90
69204;DHT22;56317;27.658;85.326;2022-11-23T01:29:16;8.40;99.90
69204;DHT22;56317;27.658;85.326;2022-11-23T01:31:43;8.50;99.90
69204;DHT22;56317;27.658;85.326;2022-11-23T01:34:12;8.70;99.90
69204;DHT22;56317;27.658;85.326;2022-11-23T01:36:49;8.80;99.90
69204;DHT22;56317;27.658;85.326;2022-11-23T01:39:16;9.00;99.90
69204;DHT22;56317;27.658;85.326;2022-11-23T01:41:44;9.10;99.90
69204;DHT22;56317;27.658;85.326;2022-11-23T01:46:51;9.40;99.90
69204;DHT22;56317;27.658;85.326;2022-11-23T01:49:22;9.60;99.90
69204;DHT22;56317;27.658;85.326;2022-11-23T01:51:51;9.70;99.90
69204;DHT22;56317;27.658;85.326;2022-11-23T01:54:29;9.90;99.90
69204;DHT22;56317;27.658;85.326;2022-11-23T01:57:02;10.10;99.90
69204;DHT22;56317;27.658;85.326;2022-11-23T01:59:32;10.40;99.90
69204;DHT22;56317;27.658;85.326;2022-11-23T02:02:04;10.50;99.90
69204;DHT22;56317;27.658;85.326;2022-11-23T02:04:38;10.80;99.90
69204;DHT22;56317;27.658;85.326;2022-11-23T02:07:06;11.00;99.90
69204;DHT22;56317;27.658;85.326;2022-11-23T02:09:34;11.20;99.90
69204;DHT22;56317;27.658;85.326;2022-11-23T02:12:02;11.30;99.90
69204;DHT22;56317;27.658;85.326;2022-11-23T02:14:29;11.40;99.90
69204;DHT22;56317;27.658;85.326;2022-11-23T02:16:59;11.60;99.90
69204;DHT22;56317;27.658;85.326;2022-11-23T02:28:01;12.50;99.90
69204;DHT22;56317;27.658;85.326;2022-11-23T02:30:29;12.80;99.90
69204;DHT22;56317;27.658;85.326;2022-11-23T02:32:57;13.00;99.90
69204;DHT22;56317;27.658;85.326;2022-11-23T02:35:24;13.30;99.90
69204;DHT22;56317;27.658;85.326;2022-11-23T02:37:52;13.50;99.90
69204;DHT22;56317;27.658;85.326;2022-11-23T02:40:33;13.70;99.90
69204;DHT22;56317;27.658;85.326;2022-11-23T02:43:01;13.90;99.90
69204;DHT22;56317;27.658;85.326;2022-11-23T02:48:00;14.40;99.90
69204;DHT22;56317;27.658;85.326;2022-11-23T02:50:28;14.60;99.90
69204;DHT22;56317;27.658;85.326;2022-11-23T02:52:55;14.80;99.90
69204;DHT22;56317;27.658;85.326;2022-11-23T02:55:22;15.00;99.90
69204;DHT22;56317;27.658;85.326;2022-11-23T02:57:50;15.30;99.90
69204;DHT22;56317;27.658;85.326;2022-11-23T03:00:17;15.60;99.90
69204;DHT22;56317;27.658;85.326;2022-11-23T03:02:44;15.80;99.90
69204;DHT22;56317;27.658;85.326;2022-11-23T03:05:12;16.00;99.90
69204;DHT22;56317;27.658;85.326;2022-11-23T03:07:39;16.20;99.90
69204;DHT22;56317;27.658;85.326;2022-11-23T03:10:07;16.50;99.90
69204;DHT22;56317;27.658;85.326;2022-11-23T03:12:34;16.80;99.90
69204;DHT22;56317;27.658;85.326;2022-11-23T03:15:02;16.90;99.90
69204;DHT22;56317;27.658;85.326;2022-11-23T03:17:30;17.10;99.90
69204;DHT22;56317;27.658;85.326;2022-11-23T03:19:58;17.40;99.90
69204;DHT22;56317;27.658;85.326;2022-11-23T03:22:25;17.60;99.90
69204;DHT22;56317;27.658;85.326;2022-11-23T03:24:52;17.90;99.90
69204;DHT22;56317;27.658;85.326;2022-11-23T03:27:20;18.40;98.00
69204;DHT22;56317;27.658;85.326;2022-11-23T03:29:47;19.00;96.90
69204;DHT22;56317;27.658;85.326;2022-11-23T03:32:15;19.70;96.50
69204;DHT22;56317;27.658;85.326;2022-11-23T03:34:42;20.50;93.40
69204;DHT22;56317;27.658;85.326;2022-11-23T03:37:09;21.20;91.40
69204;DHT22;56317;27.658;85.326;2022-11-23T03:39:37;21.90;92.10
69204;DHT22;56317;27.658;85.326;2022-11-23T03:42:04;22.50;87.70
69204;DHT22;56317;27.658;85.326;2022-11-23T03:44:35;23.00;87.40
69204;DHT22;56317;27.658;85.326;2022-11-23T03:47:02;23.50;83.00
69204;DHT22;56317;27.658;85.326;2022-11-23T03:49:29;24.20;81.30
69204;DHT22;56317;27.658;85.326;2022-11-23T03:51:57;24.60;76.80
69204;DHT22;56317;27.658;85.326;2022-11-23T03:54:24;25.20;73.20
69204;DHT22;56317;27.658;85.326;2022-11-23T03:56:51;25.80;69.50
69204;DHT22;56317;27.658;85.326;2022-11-23T03:59:19;26.40;69.20
69204;DHT22;56317;27.658;85.326;2022-11-23T04:01:46;26.80;65.60
69204;DHT22;56317;27.658;85.326;2022-11-23T04:04:15;26.90;62.30
69204;DHT22;56317;27.658;85.326;2022-11-23T04:06:44;27.10;60.70
69204;DHT22;56317;27.658;85.326;2022-11-23T04:09:12;27.40;59.50
69204;DHT22;56317;27.658;85.326;2022-11-23T04:11:39;27.70;59.20
69204;DHT22;56317;27.658;85.326;2022-11-23T04:14:15;28.00;58.30
69204;DHT22;56317;27.658;85.326;2022-11-23T04:16:53;28.20;58.40
69204;DHT22;56317;27.658;85.326;2022-11-23T04:19:20;28.60;54.50
69204;DHT22;56317;27.658;85.326;2022-11-23T04:21:48;29.00;53.60
69204;DHT22;56317;27.658;85.326;2022-11-23T04:24:15;29.50;55.60
69204;DHT22;56317;27.658;85.326;2022-11-23T04:26:42;29.80;54.20
69204;DHT22;56317;27.658;85.326;2022-11-23T04:29:10;30.10;51.80
69204;DHT22;56317;27.658;85.326;2022-11-23T04:31:37;30.60;50.50
69204;DHT22;56317;27.658;85.326;2022-11-23T04:34:04;30.70;51.20
69204;DHT22;56317;27.658;85.326;2022-11-23T04:36:32;31.10;48.70
69204;DHT22;56317;27.658;85.326;2022-11-23T04:38:59;31.30;47.60
69204;DHT22;56317;27.658;85.326;2022-11-23T04:41:29;31.70;47.70
69204;DHT22;56317;27.658;85.326;2022-11-23T04:43:57;32.20;46.60
69204;DHT22;56317;27.658;85.326;2022-11-23T04:46:24;32.60;47.20
69204;DHT22;56317;27.658;85.326;2022-11-23T04:48:52;32.90;45.30
69204;DHT22;56317;27.658;85.326;2022-11-23T04:51:19;33.20;44.70
69204;DHT22;56317;27.658;85.326;2022-11-23T04:53:46;33.90;43.80
69204;DHT22;56317;27.658;85.326;2022-11-23T04:56:14;34.20;42.90
69204;DHT22;56317;27.658;85.326;2022-11-23T05:01:29;35.20;42.40
69204;DHT22;56317;27.658;85.326;2022-11-23T05:03:57;35.90;41.10
69204;DHT22;56317;27.658;85.326;2022-11-23T05:06:24;36.10;41.30
69204;DHT22;56317;27.658;85.326;2022-11-23T05:08:52;36.60;40.40
69204;DHT22;56317;27.658;85.326;2022-11-23T05:11:21;36.90;40.80
69204;DHT22;56317;27.658;85.326;2022-11-23T05:13:48;37.10;39.90
69204;DHT22;56317;27.658;85.326;2022-11-23T05:16:16;37.50;39.00
69204;DHT22;56317;27.658;85.326;2022-11-23T05:18:46;37.90;38.60
69204;DHT22;56317;27.658;85.326;2022-11-23T05:21:13;38.20;38.00
69204;DHT22;56317;27.658;85.326;2022-11-23T05:23:41;38.50;38.20
69204;DHT22;56317;27.658;85.326;2022-11-23T05:26:08;38.50;37.60
69204;DHT22;56317;27.658;85.326;2022-11-23T05:28:35;38.70;36.60
69204;DHT22;56317;27.658;85.326;2022-11-23T05:31:07;39.10;36.80
69204;DHT22;56317;27.658;85.326;2022-11-23T05:33:35;39.20;35.80
69204;DHT22;56317;27.658;85.326;2022-11-23T05:36:03;39.30;35.10
69204;DHT22;56317;27.658;85.326;2022-11-23T05:38:30;39.30;35.70
69204;DHT22;56317;27.658;85.326;2022-11-23T05:40:57;39.60;34.80
69204;DHT22;56317;27.658;85.326;2022-11-23T05:43:24;39.80;34.30
69204;DHT22;56317;27.658;85.326;2022-11-23T05:45:52;39.90;33.70
69204;DHT22;56317;27.658;85.326;2022-11-23T05:48:21;40.20;34.30
69204;DHT22;56317;27.658;85.326;2022-11-23T05:50:49;40.90;33.90
69204;DHT22;56317;27.658;85.326;2022-11-23T05:53:17;41.20;33.40
69204;DHT22;56317;27.658;85.326;2022-11-23T05:55:45;41.40;33.20
69204;DHT22;56317;27.658;85.326;2022-11-23T05:58:12;41.70;33.80
69204;DHT22;56317;27.658;85.326;2022-11-23T06:00:39;41.60;32.30
69204;DHT22;56317;27.658;85.326;2022-11-23T06:03:07;41.50;33.20
69204;DHT22;56317;27.658;85.326;2022-11-23T06:05:34;42.30;32.80
69204;DHT22;56317;27.658;85.326;2022-11-23T06:08:01;42.70;32.40
69204;DHT22;56317;27.658;85.326;2022-11-23T06:10:28;43.30;32.30
69204;DHT22;56317;27.658;85.326;2022-11-23T06:13:02;43.50;32.10
69204;DHT22;56317;27.658;85.326;2022-11-23T06:15:29;43.90;31.90
69204;DHT22;56317;27.658;85.326;2022-11-23T06:18:01;44.50;31.10
69204;DHT22;56317;27.658;85.326;2022-11-23T06:20:29;44.20;30.40
69204;DHT22;56317;27.658;85.326;2022-11-23T06:22:56;43.90;30.40
69204;DHT22;56317;27.658;85.326;2022-11-23T06:28:23;42.50;31.50
69204;DHT22;56317;27.658;85.326;2022-11-23T06:30:50;42.50;31.40
69204;DHT22;56317;27.658;85.326;2022-11-23T06:33:17;43.00;31.40
69204;DHT22;56317;27.658;85.326;2022-11-23T06:35:58;43.70;30.70
69204;DHT22;56317;27.658;85.326;2022-11-23T06:38:27;44.00;30.90
69204;DHT22;56317;27.658;85.326;2022-11-23T06:41:01;44.80;30.30
69204;DHT22;56317;27.658;85.326;2022-11-23T06:43:31;45.80;30.00
69204;DHT22;56317;27.658;85.326;2022-11-23T06:46:01;46.50;29.50
69204;DHT22;56317;27.658;85.326;2022-11-23T06:48:28;46.50;29.20
69204;DHT22;56317;27.658;85.326;2022-11-23T06:50:58;46.50;29.40
69204;DHT22;56317;27.658;85.326;2022-11-23T06:53:26;46.40;28.90
69204;DHT22;56317;27.658;85.326;2022-11-23T06:55:59;46.60;28.80
69204;DHT22;56317;27.658;85.326;2022-11-23T06:58:27;47.10;28.80
69204;DHT22;56317;27.658;85.326;2022-11-23T07:00:58;47.50;28.20
69204;DHT22;56317;27.658;85.326;2022-11-23T07:03:25;47.50;28.40
69204;DHT22;56317;27.658;85.326;2022-11-23T07:05:53;47.80;28.80
69204;DHT22;56317;27.658;85.326;2022-11-23T07:08:20;48.30;27.50
69204;DHT22;56317;27.658;85.326;2022-11-23T07:10:48;47.90;27.60
69204;DHT22;56317;27.658;85.326;2022-11-23T07:13:15;47.70;27.70
69204;DHT22;56317;27.658;85.326;2022-11-23T07:15:43;47.00;27.70
69204;DHT22;56317;27.658;85.326;2022-11-23T07:18:11;47.00;28.10
69204;DHT22;56317;27.658;85.326;2022-11-23T07:20:39;47.20;28.40
69204;DHT22;56317;27.658;85.326;2022-11-23T07:23:07;47.80;28.00
69204;DHT22;56317;27.658;85.326;2022-11-23T07:25:37;47.40;28.70
69204;DHT22;56317;27.658;85.326;2022-11-23T07:28:06;47.90;28.10
69204;DHT22;56317;27.658;85.326;2022-11-23T07:30:35;48.00;28.00
69204;DHT22;56317;27.658;85.326;2022-11-23T07:33:07;48.20;28.00
69204;DHT22;56317;27.658;85.326;2022-11-23T07:35:36;48.10;27.80
69204;DHT22;56317;27.658;85.326;2022-11-23T07:38:05;47.30;28.10
69204;DHT22;56317;27.658;85.326;2022-11-23T07:40:36;46.80;28.30
69204;DHT22;56317;27.658;85.326;2022-11-23T07:43:04;46.40;28.60
69204;DHT22;56317;27.658;85.326;2022-11-23T07:45:32;46.20;28.70
69204;DHT22;56317;27.658;85.326;2022-11-23T07:48:07;46.50;28.80
69204;DHT22;56317;27.658;85.326;2022-11-23T07:50:36;46.20;28.60
69204;DHT22;56317;27.658;85.326;2022-11-23T07:53:05;46.00;28.70
69204;DHT22;56317;27.658;85.326;2022-11-23T07:55:34;45.20;28.90
69204;DHT22;56317;27.658;85.326;2022-11-23T07:58:01;44.60;29.10
69204;DHT22;56317;27.658;85.326;2022-11-23T08:00:28;44.60;29.40
69204;DHT22;56317;27.658;85.326;2022-11-23T08:02:58;44.30;29.40
69204;DHT22;56317;27.658;85.326;2022-11-23T08:05:25;44.40;29.50
69204;DHT22;56317;27.658;85.326;2022-11-23T08:07:58;44.80;29.20
69204;DHT22;56317;27.658;85.326;2022-11-23T08:10:27;45.10;29.30
69204;DHT22;56317;27.658;85.326;2022-11-23T08:13:05;44.50;29.50
69204;DHT22;56317;27.658;85.326;2022-11-23T08:15:33;44.10;29.70
69204;DHT22;56317;27.658;85.326;2022-11-23T08:18:02;44.20;29.50
69204;DHT22;56317;27.658;85.326;2022-11-23T08:20:31;44.30;29.60
69204;DHT22;56317;27.658;85.326;2022-11-23T08:22:59;43.60;29.70
69204;DHT22;56317;27.658;85.326;2022-11-23T08:25:31;42.90;29.80
69204;DHT22;56317;27.658;85.326;2022-11-23T08:28:02;42.40;30.20
69204;DHT22;56317;27.658;85.326;2022-11-23T08:30:32;43.10;30.30
69204;DHT22;56317;27.658;85.326;2022-11-23T08:33:05;43.80;29.80
69204;DHT22;56317;27.658;85.326;2022-11-23T08:35:36;43.50;29.80
69204;DHT22;56317;27.658;85.326;2022-11-23T08:38:04;42.80;30.00
69204;DHT22;56317;27.658;85.326;2022-11-23T08:40:32;42.40;30.00
69204;DHT22;56317;27.658;85.326;2022-11-23T08:43:00;42.10;30.50
69204;DHT22;56317;27.658;85.326;2022-11-23T08:45:27;41.50;31.20
69204;DHT22;56317;27.658;85.326;2022-11-23T08:47:59;41.30;31.40
69204;DHT22;56317;27.658;85.326;2022-11-23T08:50:27;41.10;31.10
69204;DHT22;56317;27.658;85.326;2022-11-23T08:52:56;40.50;31.40
69204;DHT22;56317;27.658;85.326;2022-11-23T08:55:25;39.90;32.00
69204;DHT22;56317;27.658;85.326;2022-11-23T08:57:56;39.60;32.00
69204;DHT22;56317;27.658;85.326;2022-11-23T09:00:24;39.70;32.10
69204;DHT22;56317;27.658;85.326;2022-11-23T09:02:52;39.40;32.30
69204;DHT22;56317;27.658;85.326;2022-11-23T09:05:20;39.50;32.20
69204;DHT22;56317;27.658;85.326;2022-11-23T09:07:47;39.80;32.30
69204;DHT22;56317;27.658;85.326;2022-11-23T09:10:14;39.60;32.00
69204;DHT22;56317;27.658;85.326;2022-11-23T09:12:42;38.80;32.80
69204;DHT22;56317;27.658;85.326;2022-11-23T09:15:09;38.90;32.60
69204;DHT22;56317;27.658;85.326;2022-11-23T09:17:37;39.40;32.50
69204;DHT22;56317;27.658;85.326;2022-11-23T09:20:05;39.50;32.20
69204;DHT22;56317;27.658;85.326;2022-11-23T09:22:32;39.00;32.20
69204;DHT22;56317;27.658;85.326;2022-11-23T09:25:00;38.40;32.90
69204;DHT22;56317;27.658;85.326;2022-11-23T09:27:28;38.30;33.20
69204;DHT22;56317;27.658;85.326;2022-11-23T09:29:55;38.60;32.70
69204;DHT22;56317;27.658;85.326;2022-11-23T09:32:22;39.40;32.30
69204;DHT22;56317;27.658;85.326;2022-11-23T09:34:50;40.30;30.80
69204;DHT22;56317;27.658;85.326;2022-11-23T09:37:17;40.90;30.20
69204;DHT22;56317;27.658;85.326;2022-11-23T09:39:44;41.10;30.00
69204;DHT22;56317;27.658;85.326;2022-11-23T09:42:31;40.90;30.00
69204;DHT22;56317;27.658;85.326;2022-11-23T09:48:38;41.30;30.30
69204;DHT22;56317;27.658;85.326;2022-11-23T09:51:17;40.90;30.40
69204;DHT22;56317;27.658;85.326;2022-11-23T09:54:03;40.80;30.60
69204;DHT22;56317;27.658;85.326;2022-11-23T09:56:36;41.00;30.80
69204;DHT22;56317;27.658;85.326;2022-11-23T10:01:50;41.20;30.90
69204;DHT22;56317;27.658;85.326;2022-11-23T10:04:18;40.90;30.80
69204;DHT22;56317;27.658;85.326;2022-11-23T10:06:53;40.10;31.10
69204;DHT22;56317;27.658;85.326;2022-11-23T10:09:40;38.90;32.00
69204;DHT22;56317;27.658;85.326;2022-11-23T10:12:16;37.60;33.20
69204;DHT22;56317;27.658;85.326;2022-11-23T10:21:05;33.70;36.20
69204;DHT22;56317;27.658;85.326;2022-11-23T10:23:55;31.70;38.50
69204;DHT22;56317;27.658;85.326;2022-11-23T10:26:31;29.70;40.50
69204;DHT22;56317;27.658;85.326;2022-11-23T10:32:06;28.10;43.70
69204;DHT22;56317;27.658;85.326;2022-11-23T10:35:10;27.60;44.50
69204;DHT22;56317;27.658;85.326;2022-11-23T10:37:39;26.70;46.80
69204;DHT22;56317;27.658;85.326;2022-11-23T10:40:27;25.60;48.20
69204;DHT22;56317;27.658;85.326;2022-11-23T10:43:00;24.70;50.00
69204;DHT22;56317;27.658;85.326;2022-11-23T10:45:32;23.70;51.50
69204;DHT22;56317;27.658;85.326;2022-11-23T10:48:00;22.80;53.40
69204;DHT22;56317;27.658;85.326;2022-11-23T10:50:35;22.10;55.10
69204;DHT22;56317;27.658;85.326;2022-11-23T10:55:49;21.10;58.70
69204;DHT22;56317;27.658;85.326;2022-11-23T10:58:31;20.60;59.60
69204;DHT22;56317;27.658;85.326;2022-11-23T11:01:04;20.00;63.80
69204;DHT22;56317;27.658;85.326;2022-11-23T11:03:34;19.60;64.20
69204;DHT22;56317;27.658;85.326;2022-11-23T11:06:01;19.40;64.80
69204;DHT22;56317;27.658;85.326;2022-11-23T11:08:44;19.00;66.80
69204;DHT22;56317;27.658;85.326;2022-11-23T11:11:31;18.70;65.30
69204;DHT22;56317;27.658;85.326;2022-11-23T11:14:21;18.40;67.60
69204;DHT22;56317;27.658;85.326;2022-11-23T11:16:57;18.10;68.00
69204;DHT22;56317;27.658;85.326;2022-11-23T11:19:31;17.80;69.70
69204;DHT22;56317;27.658;85.326;2022-11-23T11:22:01;17.50;71.50
69204;DHT22;56317;27.658;85.326;2022-11-23T11:24:42;17.30;72.10
69204;DHT22;56317;27.658;85.326;2022-11-23T11:27:21;17.10;72.10
69204;DHT22;56317;27.658;85.326;2022-11-23T11:29:57;16.90;73.20
69204;DHT22;56317;27.658;85.326;2022-11-23T11:35:30;16.50;75.20
69204;DHT22;56317;27.658;85.326;2022-11-23T11:38:28;16.30;75.50
69204;DHT22;56317;27.658;85.326;2022-11-23T11:41:01;16.20;78.80
69204;DHT22;56317;27.658;85.326;2022-11-23T11:43:34;16.00;80.00
69204;DHT22;56317;27.658;85.326;2022-11-23T11:46:23;15.90;81.30
69204;DHT22;56317;27.658;85.326;2022-11-23T11:48:54;15.80;81.90
69204;DHT22;56317;27.658;85.326;2022-11-23T11:51:31;15.70;84.00
69204;DHT22;56317;27.658;85.326;2022-11-23T11:56:43;15.60;87.00
69204;DHT22;56317;27.658;85.326;2022-11-23T12:04:34;15.30;87.30
69204;DHT22;56317;27.658;85.326;2022-11-23T12:07:28;15.20;88.50
69204;DHT22;56317;27.658;85.326;2022-11-23T12:10:14;15.10;90.00
69204;DHT22;56317;27.658;85.326;2022-11-23T12:12:43;15.10;90.60
69204;DHT22;56317;27.658;85.326;2022-11-23T12:15:23;15.00;91.60
69204;DHT22;56317;27.658;85.326;2022-11-23T12:18:19;14.90;91.20
69204;DHT22;56317;27.658;85.326;2022-11-23T12:20:55;14.80;91.80
69204;DHT22;56317;27.658;85.326;2022-11-23T12:24:11;14.70;91.80
69204;DHT22;56317;27.658;85.326;2022-11-23T12:40:18;14.30;92.50
69204;DHT22;56317;27.658;85.326;2022-11-23T12:42:50;14.30;93.30
69204;DHT22;56317;27.658;85.326;2022-11-23T13:00:06;13.90;95.10
69204;DHT22;56317;27.658;85.326;2022-11-23T13:02:59;13.90;95.20
69204;DHT22;56317;27.658;85.326;2022-11-23T13:08:50;13.70;95.30
69204;DHT22;56317;27.658;85.326;2022-11-23T13:22:40;13.40;97.00
69204;DHT22;56317;27.658;85.326;2022-11-23T13:32:57;13.30;98.50
69204;DHT22;56317;27.658;85.326;2022-11-23T13:40:32;13.20;99.10
69204;DHT22;56317;27.658;85.326;2022-11-23T13:48:52;13.20;99.90
69204;DHT22;56317;27.658;85.326;2022-11-23T13:51:27;13.20;99.90
69204;DHT22;56317;27.658;85.326;2022-11-23T13:54:18;13.20;99.90
69204;DHT22;56317;27.658;85.326;2022-11-23T13:56:46;13.20;99.90
69204;DHT22;56317;27.658;85.326;2022-11-23T14:04:34;13.20;99.90
69204;DHT22;56317;27.658;85.326;2022-11-23T14:09:48;13.10;99.90
69204;DHT22;56317;27.658;85.326;2022-11-23T14:12:25;13.10;99.90
69204;DHT22;56317;27.658;85.326;2022-11-23T14:31:57;12.70;99.90
69204;DHT22;56317;27.658;85.326;2022-11-23T14:37:16;12.60;99.90
69204;DHT22;56317;27.658;85.326;2022-11-23T14:42:27;12.50;99.90
69204;DHT22;56317;27.658;85.326;2022-11-23T14:44:57;12.40;99.90
69204;DHT22;56317;27.658;85.326;2022-11-23T14:47:29;12.40;99.90
69204;DHT22;56317;27.658;85.326;2022-11-23T14:49:57;12.30;99.90
69204;DHT22;56317;27.658;85.326;2022-11-23T14:52:32;12.30;99.90
69204;DHT22;56317;27.658;85.326;2022-11-23T14:55:03;12.30;99.90
69204;DHT22;56317;27.658;85.326;2022-11-23T14:57:41;12.30;99.90
69204;DHT22;56317;27.658;85.326;2022-11-23T15:00:26;12.20;99.90
69204;DHT22;56317;27.658;85.326;2022-11-23T15:03:00;12.20;99.90
69204;DHT22;56317;27.658;85.326;2022-11-23T15:05:35;12.20;99.90
69204;DHT22;56317;27.658;85.326;2022-11-23T15:08:20;12.20;99.90
69204;DHT22;56317;27.658;85.326;2022-11-23T15:13:49;12.10;99.90
69204;DHT22;56317;27.658;85.326;2022-11-23T15:16:18;12.10;99.90
69204;DHT22;56317;27.658;85.326;2022-11-23T15:18:46;12.10;99.90
69204;DHT22;56317;27.658;85.326;2022-11-23T15:21:20;12.10;99.90
69204;DHT22;56317;27.658;85.326;2022-11-23T15:23:48;12.00;99.90
69204;DHT22;56317;27.658;85.326;2022-11-23T15:26:22;12.00;99.90
69204;DHT22;56317;27.658;85.326;2022-11-23T15:28:50;12.00;99.90
69204;DHT22;56317;27.658;85.326;2022-11-23T15:33:49;11.80;99.90
69204;DHT22;56317;27.658;85.326;2022-11-23T15:36:27;11.70;99.90
69204;DHT22;56317;27.658;85.326;2022-11-23T15:38:57;11.70;99.90
69204;DHT22;56317;27.658;85.326;2022-11-23T15:41:26;11.50;99.90
69204;DHT22;56317;27.658;85.326;2022-11-23T15:43:57;11.50;99.90
69204;DHT22;56317;27.658;85.326;2022-11-23T15:46:27;11.40;99.90
69204;DHT22;56317;27.658;85.326;2022-11-23T15:48:56;11.50;99.90
69204;DHT22;56317;27.658;85.326;2022-11-23T15:51:45;11.50;99.90
69204;DHT22;56317;27.658;85.326;2022-11-23T15:54:19;11.50;99.90
69204;DHT22;56317;27.658;85.326;2022-11-23T15:56:49;11.40;99.90
69204;DHT22;56317;27.658;85.326;2022-11-23T15:59:46;11.40;99.90
69204;DHT22;56317;27.658;85.326;2022-11-23T16:02:22;11.30;99.90
69204;DHT22;56317;27.658;85.326;2022-11-23T16:05:17;11.20;99.90
69204;DHT22;56317;27.658;85.326;2022-11-23T16:07:58;11.10;99.90
69204;DHT22;56317;27.658;85.326;2022-11-23T16:10:32;11.10;99.90
69204;DHT22;56317;27.658;85.326;2022-11-23T16:13:02;11.10;99.90
69204;DHT22;56317;27.658;85.326;2022-11-23T16:20:50;11.00;99.90
69204;DHT22;56317;27.658;85.326;2022-11-23T16:23:20;11.00;99.90
69204;DHT22;56317;27.658;85.326;2022-11-23T16:26:04;11.00;99.90
69204;DHT22;56317;27.658;85.326;2022-11-23T16:28:36;11.00;99.90
69204;DHT22;56317;27.658;85.326;2022-11-23T16:31:04;10.90;99.90
69204;DHT22;56317;27.658;85.326;2022-11-23T16:33:31;11.00;99.90
69204;DHT22;56317;27.658;85.326;2022-11-23T16:35:59;10.90;99.90
69204;DHT22;56317;27.658;85.326;2022-11-23T16:38:26;10.90;99.90
69204;DHT22;56317;27.658;85.326;2022-11-23T16:40:53;10.80;99.90
69204;DHT22;56317;27.658;85.326;2022-11-23T16:43:21;10.90;99.90
69204;DHT22;56317;27.658;85.326;2022-11-23T16:45:49;10.90;99.90
69204;DHT22;56317;27.658;85.326;2022-11-23T16:50:54;10.90;99.90
69204;DHT22;56317;27.658;85.326;2022-11-23T16:53:22;10.90;99.90
69204;DHT22;56317;27.658;85.326;2022-11-23T16:55:56;10.90;99.90
69204;DHT22;56317;27.658;85.326;2022-11-23T16:58:25;10.90;99.90
69204;DHT22;56317;27.658;85.326;2022-11-23T17:00:54;10.90;99.90
69204;DHT22;56317;27.658;85.326;2022-11-23T17:03:22;10.90;99.90
69204;DHT22;56317;27.658;85.326;2022-11-23T17:05:49;10.80;99.90
69204;DHT22;56317;27.658;85.326;2022-11-23T17:08:17;10.90;99.90
69204;DHT22;56317;27.658;85.326;2022-11-23T17:10:44;10.90;99.90
69204;DHT22;56317;27.658;85.326;2022-11-23T17:13:31;10.90;99.90
69204;DHT22;56317;27.658;85.326;2022-11-23T17:15:59;10.90;99.90
69204;DHT22;56317;27.658;85.326;2022-11-23T17:18:26;10.90;99.90
69204;DHT22;56317;27.658;85.326;2022-11-23T17:20:53;10.90;99.90
69204;DHT22;56317;27.658;85.326;2022-11-23T17:23:21;10.90;99.90
69204;DHT22;56317;27.658;85.326;2022-11-23T17:25:48;10.90;99.90
69204;DHT22;56317;27.658;85.326;2022-11-23T17:28:17;10.90;99.90
69204;DHT22;56317;27.658;85.326;2022-11-23T17:30:48;10.90;99.90
69204;DHT22;56317;27.658;85.326;2022-11-23T17:33:15;10.90;99.90
69204;DHT22;56317;27.658;85.326;2022-11-23T17:35:43;10.80;99.90
69204;DHT22;56317;27.658;85.326;2022-11-23T17:38:15;10.80;99.90
69204;DHT22;56317;27.658;85.326;2022-11-23T17:40:43;10.80;99.90
69204;DHT22;56317;27.658;85.326;2022-11-23T17:43:13;10.80;99.90
69204;DHT22;56317;27.658;85.326;2022-11-23T17:45:41;10.80;99.90
69204;DHT22;56317;27.658;85.326;2022-11-23T17:48:12;10.70;99.90
69204;DHT22;56317;27.658;85.326;2022-11-23T17:50:40;10.70;99.90
69204;DHT22;56317;27.658;85.326;2022-11-23T17:53:09;10.70;99.90
69204;DHT22;56317;27.658;85.326;2022-11-23T17:55:37;10.60;99.90
69204;DHT22;56317;27.658;85.326;2022-11-23T17:58:04;10.60;99.90
69204;DHT22;56317;27.658;85.326;2022-11-23T18:00:31;10.60;99.90
69204;DHT22;56317;27.658;85.326;2022-11-23T18:02:59;10.50;99.90
69204;DHT22;56317;27.658;85.326;2022-11-23T18:05:29;10.50;99.90
69204;DHT22;56317;27.658;85.326;2022-11-23T18:07:57;10.50;99.90
69204;DHT22;56317;27.658;85.326;2022-11-23T18:10:24;10.40;99.90
69204;DHT22;56317;27.658;85.326;2022-11-23T18:12:51;10.40;99.90
69204;DHT22;56317;27.658;85.326;2022-11-23T18:15:19;10.30;99.90
69204;DHT22;56317;27.658;85.326;2022-11-23T18:17:46;10.30;99.90